Terminal Aerodrome Forecast
Issued by NWS

Home | Current Version | Previous Version | Text Only | Print | Product List | Glossary On
Versions: 1 2 3 4 5 6 7 8 9 10 11 12 13 14 15
000
FTUS45 KTFX 211359 AAA
TAFBZN
TAF AMD
KBZN 211359Z 2114/2218 00000KT P6SM OVC050
     FM211600 VRB04KT P6SM SKC
     FM221200 19008KT P6SM SCT015 BKN030 PROB30 2212/2218 4SM -SN BR
      SCT007 BKN015=

USA.gov is the U.S. government's official web portal to all federal, state and local government web resources and services.